sensor_id;sensor_type;location;lat;lon;timestamp;temperature;humidity
11229;DHT22;5671;47.936;8.716;2023-09-08T00:00:44;16.80;74.40
11229;DHT22;5671;47.936;8.716;2023-09-08T00:03:11;16.80;75.30
11229;DHT22;5671;47.936;8.716;2023-09-08T00:05:38;16.70;74.60
11229;DHT22;5671;47.936;8.716;2023-09-08T00:08:07;16.70;74.50
11229;DHT22;5671;47.936;8.716;2023-09-08T00:10:35;16.70;74.90
11229;DHT22;5671;47.936;8.716;2023-09-08T00:13:02;16.60;75.90
11229;DHT22;5671;47.936;8.716;2023-09-08T00:15:29;16.60;74.80
11229;DHT22;5671;47.936;8.716;2023-09-08T00:17:57;16.60;74.20
11229;DHT22;5671;47.936;8.716;2023-09-08T00:20:26;16.60;75.70
11229;DHT22;5671;47.936;8.716;2023-09-08T00:22:53;16.50;74.70
11229;DHT22;5671;47.936;8.716;2023-09-08T00:25:20;16.50;75.10
11229;DHT22;5671;47.936;8.716;2023-09-08T00:27:48;16.50;75.00
11229;DHT22;5671;47.936;8.716;2023-09-08T00:30:15;16.40;75.20
11229;DHT22;5671;47.936;8.716;2023-09-08T00:32:42;16.40;75.40
11229;DHT22;5671;47.936;8.716;2023-09-08T00:35:11;16.30;75.40
11229;DHT22;5671;47.936;8.716;2023-09-08T00:37:39;16.30;75.50
11229;DHT22;5671;47.936;8.716;2023-09-08T00:40:07;16.30;75.50
11229;DHT22;5671;47.936;8.716;2023-09-08T00:42:34;16.20;75.10
11229;DHT22;5671;47.936;8.716;2023-09-08T00:45:02;16.20;75.40
11229;DHT22;5671;47.936;8.716;2023-09-08T00:47:29;16.20;75.40
11229;DHT22;5671;47.936;8.716;2023-09-08T00:49:56;16.20;75.40
11229;DHT22;5671;47.936;8.716;2023-09-08T00:52:23;16.10;75.00
11229;DHT22;5671;47.936;8.716;2023-09-08T00:54:56;16.10;75.80
11229;DHT22;5671;47.936;8.716;2023-09-08T00:57:23;16.10;75.30
11229;DHT22;5671;47.936;8.716;2023-09-08T00:59:50;16.10;75.60
11229;DHT22;5671;47.936;8.716;2023-09-08T01:02:19;16.10;76.00
11229;DHT22;5671;47.936;8.716;2023-09-08T01:04:46;16.00;75.80
11229;DHT22;5671;47.936;8.716;2023-09-08T01:07:14;15.90;75.70
11229;DHT22;5671;47.936;8.716;2023-09-08T01:09:41;15.90;75.80
11229;DHT22;5671;47.936;8.716;2023-09-08T01:12:09;15.90;75.90
11229;DHT22;5671;47.936;8.716;2023-09-08T01:14:35;15.90;75.60
11229;DHT22;5671;47.936;8.716;2023-09-08T01:17:02;15.80;75.50
11229;DHT22;5671;47.936;8.716;2023-09-08T01:19:31;15.80;75.60
11229;DHT22;5671;47.936;8.716;2023-09-08T01:22:11;15.80;75.50
11229;DHT22;5671;47.936;8.716;2023-09-08T01:25:11;15.70;75.50
11229;DHT22;5671;47.936;8.716;2023-09-08T01:27:46;15.70;75.20
11229;DHT22;5671;47.936;8.716;2023-09-08T01:30:15;15.70;75.10
11229;DHT22;5671;47.936;8.716;2023-09-08T01:32:43;15.60;75.10
11229;DHT22;5671;47.936;8.716;2023-09-08T01:35:11;15.60;75.20
11229;DHT22;5671;47.936;8.716;2023-09-08T01:37:40;15.60;76.10
11229;DHT22;5671;47.936;8.716;2023-09-08T01:40:08;15.50;76.40
11229;DHT22;5671;47.936;8.716;2023-09-08T01:42:37;15.50;76.40
11229;DHT22;5671;47.936;8.716;2023-09-08T01:45:05;15.50;76.10
11229;DHT22;5671;47.936;8.716;2023-09-08T01:47:32;15.50;76.20
11229;DHT22;5671;47.936;8.716;2023-09-08T01:50:02;15.40;76.70
11229;DHT22;5671;47.936;8.716;2023-09-08T01:52:29;15.40;76.50
11229;DHT22;5671;47.936;8.716;2023-09-08T01:54:56;15.40;76.20
11229;DHT22;5671;47.936;8.716;2023-09-08T01:57:22;15.30;77.40
11229;DHT22;5671;47.936;8.716;2023-09-08T01:59:50;15.30;76.60
11229;DHT22;5671;47.936;8.716;2023-09-08T02:02:17;15.30;76.80
11229;DHT22;5671;47.936;8.716;2023-09-08T02:07:34;15.30;75.80
11229;DHT22;5671;47.936;8.716;2023-09-08T02:10:01;15.20;76.20
11229;DHT22;5671;47.936;8.716;2023-09-08T02:12:28;15.20;75.60
11229;DHT22;5671;47.936;8.716;2023-09-08T02:14:57;15.20;75.90
11229;DHT22;5671;47.936;8.716;2023-09-08T02:17:25;15.20;76.10
11229;DHT22;5671;47.936;8.716;2023-09-08T02:19:52;15.10;76.40
11229;DHT22;5671;47.936;8.716;2023-09-08T02:22:19;15.10;75.50
11229;DHT22;5671;47.936;8.716;2023-09-08T02:24:45;15.10;75.00
11229;DHT22;5671;47.936;8.716;2023-09-08T02:27:12;15.00;75.70
11229;DHT22;5671;47.936;8.716;2023-09-08T02:29:39;15.00;75.80
11229;DHT22;5671;47.936;8.716;2023-09-08T02:32:07;15.00;75.60
11229;DHT22;5671;47.936;8.716;2023-09-08T02:34:58;15.00;75.10
11229;DHT22;5671;47.936;8.716;2023-09-08T02:37:25;14.90;75.00
11229;DHT22;5671;47.936;8.716;2023-09-08T02:39:51;14.90;75.20
11229;DHT22;5671;47.936;8.716;2023-09-08T02:42:18;14.90;75.70
11229;DHT22;5671;47.936;8.716;2023-09-08T02:44:45;14.80;75.00
11229;DHT22;5671;47.936;8.716;2023-09-08T02:47:13;14.80;75.20
11229;DHT22;5671;47.936;8.716;2023-09-08T02:49:40;14.70;75.80
11229;DHT22;5671;47.936;8.716;2023-09-08T02:52:07;14.70;75.00
11229;DHT22;5671;47.936;8.716;2023-09-08T02:54:34;14.70;75.20
11229;DHT22;5671;47.936;8.716;2023-09-08T02:57:01;14.70;75.60
11229;DHT22;5671;47.936;8.716;2023-09-08T02:59:27;14.70;75.70
11229;DHT22;5671;47.936;8.716;2023-09-08T03:01:54;14.60;76.00
11229;DHT22;5671;47.936;8.716;2023-09-08T03:04:22;14.60;76.30
11229;DHT22;5671;47.936;8.716;2023-09-08T03:06:49;14.60;75.80
11229;DHT22;5671;47.936;8.716;2023-09-08T03:09:16;14.60;76.80
11229;DHT22;5671;47.936;8.716;2023-09-08T03:11:43;14.50;76.90
11229;DHT22;5671;47.936;8.716;2023-09-08T03:14:09;14.50;76.10
11229;DHT22;5671;47.936;8.716;2023-09-08T03:16:36;14.50;76.10
11229;DHT22;5671;47.936;8.716;2023-09-08T03:19:03;14.50;76.10
11229;DHT22;5671;47.936;8.716;2023-09-08T03:21:31;14.50;75.80
11229;DHT22;5671;47.936;8.716;2023-09-08T03:23:58;14.40;75.70
11229;DHT22;5671;47.936;8.716;2023-09-08T03:26:25;14.40;75.10
11229;DHT22;5671;47.936;8.716;2023-09-08T03:28:52;14.40;75.60
11229;DHT22;5671;47.936;8.716;2023-09-08T03:31:18;14.30;76.30
11229;DHT22;5671;47.936;8.716;2023-09-08T03:33:45;14.30;76.20
11229;DHT22;5671;47.936;8.716;2023-09-08T03:36:12;14.20;76.90
11229;DHT22;5671;47.936;8.716;2023-09-08T03:38:40;14.20;77.00
11229;DHT22;5671;47.936;8.716;2023-09-08T03:41:07;14.20;76.70
11229;DHT22;5671;47.936;8.716;2023-09-08T03:43:34;14.10;77.00
11229;DHT22;5671;47.936;8.716;2023-09-08T03:46:01;14.10;76.80
11229;DHT22;5671;47.936;8.716;2023-09-08T03:48:27;14.10;76.40
11229;DHT22;5671;47.936;8.716;2023-09-08T03:50:54;14.00;76.40
11229;DHT22;5671;47.936;8.716;2023-09-08T03:53:21;14.00;77.20
11229;DHT22;5671;47.936;8.716;2023-09-08T03:55:49;14.00;78.00
11229;DHT22;5671;47.936;8.716;2023-09-08T03:58:16;14.00;78.10
11229;DHT22;5671;47.936;8.716;2023-09-08T04:00:43;13.90;78.50
11229;DHT22;5671;47.936;8.716;2023-09-08T04:03:10;13.90;77.60
11229;DHT22;5671;47.936;8.716;2023-09-08T04:05:37;13.90;77.50
11229;DHT22;5671;47.936;8.716;2023-09-08T04:08:05;13.90;77.90
11229;DHT22;5671;47.936;8.716;2023-09-08T04:10:32;13.90;78.10
11229;DHT22;5671;47.936;8.716;2023-09-08T04:13:00;13.90;78.50
11229;DHT22;5671;47.936;8.716;2023-09-08T04:15:27;13.90;78.60
11229;DHT22;5671;47.936;8.716;2023-09-08T04:17:53;13.90;77.90
11229;DHT22;5671;47.936;8.716;2023-09-08T04:20:21;13.90;77.80
11229;DHT22;5671;47.936;8.716;2023-09-08T04:22:48;13.90;77.50
11229;DHT22;5671;47.936;8.716;2023-09-08T04:25:15;13.90;77.10
11229;DHT22;5671;47.936;8.716;2023-09-08T04:27:42;13.80;78.10
11229;DHT22;5671;47.936;8.716;2023-09-08T04:30:12;13.80;78.10
11229;DHT22;5671;47.936;8.716;2023-09-08T04:32:39;13.80;77.60
11229;DHT22;5671;47.936;8.716;2023-09-08T04:35:07;13.80;77.00
11229;DHT22;5671;47.936;8.716;2023-09-08T04:37:34;13.80;76.40
11229;DHT22;5671;47.936;8.716;2023-09-08T04:40:02;13.80;78.00
11229;DHT22;5671;47.936;8.716;2023-09-08T04:42:30;13.70;77.90
11229;DHT22;5671;47.936;8.716;2023-09-08T04:44:56;13.70;78.50
11229;DHT22;5671;47.936;8.716;2023-09-08T04:47:25;13.70;77.70
11229;DHT22;5671;47.936;8.716;2023-09-08T04:49:51;13.70;77.90
11229;DHT22;5671;47.936;8.716;2023-09-08T04:52:18;13.70;77.70
11229;DHT22;5671;47.936;8.716;2023-09-08T04:54:45;13.70;77.90
11229;DHT22;5671;47.936;8.716;2023-09-08T04:57:12;13.60;78.40
11229;DHT22;5671;47.936;8.716;2023-09-08T04:59:39;13.60;78.00
11229;DHT22;5671;47.936;8.716;2023-09-08T05:02:06;13.50;77.80
11229;DHT22;5671;47.936;8.716;2023-09-08T05:04:34;13.60;77.70
11229;DHT22;5671;47.936;8.716;2023-09-08T05:07:01;13.60;77.80
11229;DHT22;5671;47.936;8.716;2023-09-08T05:09:27;13.60;77.50
11229;DHT22;5671;47.936;8.716;2023-09-08T05:11:54;13.50;77.70
11229;DHT22;5671;47.936;8.716;2023-09-08T05:14:21;13.50;77.70
11229;DHT22;5671;47.936;8.716;2023-09-08T05:16:50;13.50;78.10
11229;DHT22;5671;47.936;8.716;2023-09-08T05:19:21;13.50;77.60
11229;DHT22;5671;47.936;8.716;2023-09-08T05:21:50;13.50;77.70
11229;DHT22;5671;47.936;8.716;2023-09-08T05:24:17;13.50;77.60
11229;DHT22;5671;47.936;8.716;2023-09-08T05:26:44;13.60;78.10
11229;DHT22;5671;47.936;8.716;2023-09-08T05:29:10;13.60;78.80
11229;DHT22;5671;47.936;8.716;2023-09-08T05:31:37;13.50;78.60
11229;DHT22;5671;47.936;8.716;2023-09-08T05:34:04;13.50;78.90
11229;DHT22;5671;47.936;8.716;2023-09-08T05:36:31;13.50;78.80
11229;DHT22;5671;47.936;8.716;2023-09-08T05:39:02;13.60;78.90
11229;DHT22;5671;47.936;8.716;2023-09-08T05:41:31;13.60;78.70
11229;DHT22;5671;47.936;8.716;2023-09-08T05:43:59;13.60;79.00
11229;DHT22;5671;47.936;8.716;2023-09-08T05:46:26;13.60;79.20
11229;DHT22;5671;47.936;8.716;2023-09-08T05:48:53;13.60;79.30
11229;DHT22;5671;47.936;8.716;2023-09-08T05:51:19;13.60;79.50
11229;DHT22;5671;47.936;8.716;2023-09-08T05:53:46;13.60;79.80
11229;DHT22;5671;47.936;8.716;2023-09-08T05:56:14;13.70;79.90
11229;DHT22;5671;47.936;8.716;2023-09-08T05:58:41;13.70;80.10
11229;DHT22;5671;47.936;8.716;2023-09-08T06:01:08;13.70;80.10
11229;DHT22;5671;47.936;8.716;2023-09-08T06:03:35;13.80;79.40
11229;DHT22;5671;47.936;8.716;2023-09-08T06:06:02;13.80;79.10
11229;DHT22;5671;47.936;8.716;2023-09-08T06:08:28;13.90;80.00
11229;DHT22;5671;47.936;8.716;2023-09-08T06:10:55;13.90;80.50
11229;DHT22;5671;47.936;8.716;2023-09-08T06:13:23;13.90;80.30
11229;DHT22;5671;47.936;8.716;2023-09-08T06:15:51;14.00;80.30
11229;DHT22;5671;47.936;8.716;2023-09-08T06:18:18;14.00;80.90
11229;DHT22;5671;47.936;8.716;2023-09-08T06:20:45;14.00;80.60
11229;DHT22;5671;47.936;8.716;2023-09-08T06:23:12;14.10;81.00
11229;DHT22;5671;47.936;8.716;2023-09-08T06:25:40;14.20;80.50
11229;DHT22;5671;47.936;8.716;2023-09-08T06:28:11;14.30;80.60
11229;DHT22;5671;47.936;8.716;2023-09-08T06:30:39;14.30;81.20
11229;DHT22;5671;47.936;8.716;2023-09-08T06:33:07;14.40;81.10
11229;DHT22;5671;47.936;8.716;2023-09-08T06:35:34;14.50;82.00
11229;DHT22;5671;47.936;8.716;2023-09-08T06:38:00;14.60;81.90
11229;DHT22;5671;47.936;8.716;2023-09-08T06:40:29;14.60;81.70
11229;DHT22;5671;47.936;8.716;2023-09-08T06:42:56;14.70;81.30
11229;DHT22;5671;47.936;8.716;2023-09-08T06:45:23;14.80;81.90
11229;DHT22;5671;47.936;8.716;2023-09-08T06:47:51;14.90;81.40
11229;DHT22;5671;47.936;8.716;2023-09-08T06:50:20;15.00;81.30
11229;DHT22;5671;47.936;8.716;2023-09-08T06:52:47;15.00;81.00
11229;DHT22;5671;47.936;8.716;2023-09-08T06:55:14;15.10;80.70
11229;DHT22;5671;47.936;8.716;2023-09-08T06:57:41;15.20;80.90
11229;DHT22;5671;47.936;8.716;2023-09-08T07:00:09;15.30;81.20
11229;DHT22;5671;47.936;8.716;2023-09-08T07:02:37;15.40;79.70
11229;DHT22;5671;47.936;8.716;2023-09-08T07:05:06;15.50;80.70
11229;DHT22;5671;47.936;8.716;2023-09-08T07:07:33;15.50;80.40
11229;DHT22;5671;47.936;8.716;2023-09-08T07:10:00;15.70;80.60
11229;DHT22;5671;47.936;8.716;2023-09-08T07:12:27;15.70;80.10
11229;DHT22;5671;47.936;8.716;2023-09-08T07:14:54;15.90;80.60
11229;DHT22;5671;47.936;8.716;2023-09-08T07:17:21;16.00;80.80
11229;DHT22;5671;47.936;8.716;2023-09-08T07:19:49;16.20;80.50
11229;DHT22;5671;47.936;8.716;2023-09-08T07:22:17;16.30;80.20
11229;DHT22;5671;47.936;8.716;2023-09-08T07:24:44;16.40;80.10
11229;DHT22;5671;47.936;8.716;2023-09-08T07:27:14;16.60;79.60
11229;DHT22;5671;47.936;8.716;2023-09-08T07:29:40;16.70;80.10
11229;DHT22;5671;47.936;8.716;2023-09-08T07:32:08;16.90;80.20
11229;DHT22;5671;47.936;8.716;2023-09-08T07:34:34;17.00;79.20
11229;DHT22;5671;47.936;8.716;2023-09-08T07:37:01;17.10;79.30
11229;DHT22;5671;47.936;8.716;2023-09-08T07:39:30;17.30;78.80
11229;DHT22;5671;47.936;8.716;2023-09-08T07:41:58;17.40;78.80
11229;DHT22;5671;47.936;8.716;2023-09-08T07:44:25;17.60;77.80
11229;DHT22;5671;47.936;8.716;2023-09-08T07:46:51;17.70;77.50
11229;DHT22;5671;47.936;8.716;2023-09-08T07:49:20;17.80;77.40
11229;DHT22;5671;47.936;8.716;2023-09-08T07:51:47;18.00;78.30
11229;DHT22;5671;47.936;8.716;2023-09-08T07:54:17;18.10;77.30
11229;DHT22;5671;47.936;8.716;2023-09-08T07:56:45;18.30;76.90
11229;DHT22;5671;47.936;8.716;2023-09-08T07:59:12;18.40;77.40
11229;DHT22;5671;47.936;8.716;2023-09-08T08:01:39;18.60;76.70
11229;DHT22;5671;47.936;8.716;2023-09-08T08:04:06;18.70;76.60
11229;DHT22;5671;47.936;8.716;2023-09-08T08:06:33;18.90;75.80
11229;DHT22;5671;47.936;8.716;2023-09-08T08:09:00;19.00;76.00
11229;DHT22;5671;47.936;8.716;2023-09-08T08:11:28;19.20;76.40
11229;DHT22;5671;47.936;8.716;2023-09-08T08:13:56;19.40;75.70
11229;DHT22;5671;47.936;8.716;2023-09-08T08:16:23;19.60;76.50
11229;DHT22;5671;47.936;8.716;2023-09-08T08:18:50;19.80;76.30
11229;DHT22;5671;47.936;8.716;2023-09-08T08:21:16;20.00;76.00
11229;DHT22;5671;47.936;8.716;2023-09-08T08:23:43;20.10;75.60
11229;DHT22;5671;47.936;8.716;2023-09-08T08:26:10;20.30;74.80
11229;DHT22;5671;47.936;8.716;2023-09-08T08:28:37;20.50;74.00
11229;DHT22;5671;47.936;8.716;2023-09-08T08:31:05;20.70;72.90
11229;DHT22;5671;47.936;8.716;2023-09-08T08:33:32;20.80;72.20
11229;DHT22;5671;47.936;8.716;2023-09-08T08:36:01;20.90;72.10
11229;DHT22;5671;47.936;8.716;2023-09-08T08:38:28;21.10;71.80
11229;DHT22;5671;47.936;8.716;2023-09-08T08:41:02;21.30;71.30
11229;DHT22;5671;47.936;8.716;2023-09-08T08:43:31;21.50;71.80
11229;DHT22;5671;47.936;8.716;2023-09-08T08:45:58;21.60;70.40
11229;DHT22;5671;47.936;8.716;2023-09-08T08:48:27;21.80;70.20
11229;DHT22;5671;47.936;8.716;2023-09-08T08:50:56;22.00;70.40
11229;DHT22;5671;47.936;8.716;2023-09-08T08:53:24;22.10;69.30
11229;DHT22;5671;47.936;8.716;2023-09-08T08:55:54;22.30;69.00
11229;DHT22;5671;47.936;8.716;2023-09-08T08:58:22;22.50;68.60
11229;DHT22;5671;47.936;8.716;2023-09-08T09:00:53;22.60;68.70
11229;DHT22;5671;47.936;8.716;2023-09-08T09:03:24;22.80;67.90
11229;DHT22;5671;47.936;8.716;2023-09-08T09:05:54;22.90;67.60
11229;DHT22;5671;47.936;8.716;2023-09-08T09:08:21;23.00;67.10
11229;DHT22;5671;47.936;8.716;2023-09-08T09:10:50;23.20;67.20
11229;DHT22;5671;47.936;8.716;2023-09-08T09:13:17;23.20;66.30
11229;DHT22;5671;47.936;8.716;2023-09-08T09:15:44;23.40;65.60
11229;DHT22;5671;47.936;8.716;2023-09-08T09:18:12;23.50;66.10
11229;DHT22;5671;47.936;8.716;2023-09-08T09:20:39;23.60;65.00
11229;DHT22;5671;47.936;8.716;2023-09-08T09:23:08;23.70;65.20
11229;DHT22;5671;47.936;8.716;2023-09-08T09:25:35;23.80;64.50
11229;DHT22;5671;47.936;8.716;2023-09-08T09:28:03;23.90;64.40
11229;DHT22;5671;47.936;8.716;2023-09-08T09:30:47;24.00;64.20
11229;DHT22;5671;47.936;8.716;2023-09-08T09:33:14;24.10;64.40
11229;DHT22;5671;47.936;8.716;2023-09-08T09:35:42;24.20;64.40
11229;DHT22;5671;47.936;8.716;2023-09-08T09:38:11;24.40;64.60
11229;DHT22;5671;47.936;8.716;2023-09-08T09:40:39;24.50;64.10
11229;DHT22;5671;47.936;8.716;2023-09-08T09:43:06;24.60;63.80
11229;DHT22;5671;47.936;8.716;2023-09-08T09:45:34;24.70;62.20
11229;DHT22;5671;47.936;8.716;2023-09-08T09:48:03;24.80;59.30
11229;DHT22;5671;47.936;8.716;2023-09-08T09:50:31;24.80;61.10
11229;DHT22;5671;47.936;8.716;2023-09-08T09:52:59;24.90;62.30
11229;DHT22;5671;47.936;8.716;2023-09-08T09:55:28;25.10;62.60
11229;DHT22;5671;47.936;8.716;2023-09-08T09:57:58;25.20;62.00
11229;DHT22;5671;47.936;8.716;2023-09-08T10:00:26;25.20;62.40
11229;DHT22;5671;47.936;8.716;2023-09-08T10:02:54;25.30;61.00
11229;DHT22;5671;47.936;8.716;2023-09-08T10:05:23;25.40;61.10
11229;DHT22;5671;47.936;8.716;2023-09-08T10:07:51;25.50;61.00
11229;DHT22;5671;47.936;8.716;2023-09-08T10:10:19;25.50;61.30
11229;DHT22;5671;47.936;8.716;2023-09-08T10:12:52;25.60;60.50
11229;DHT22;5671;47.936;8.716;2023-09-08T10:15:21;25.70;59.60
11229;DHT22;5671;47.936;8.716;2023-09-08T10:17:52;25.70;60.60
11229;DHT22;5671;47.936;8.716;2023-09-08T10:20:22;25.80;60.50
11229;DHT22;5671;47.936;8.716;2023-09-08T10:22:53;25.80;60.10
11229;DHT22;5671;47.936;8.716;2023-09-08T10:25:21;25.80;60.20
11229;DHT22;5671;47.936;8.716;2023-09-08T10:27:53;25.80;59.70
11229;DHT22;5671;47.936;8.716;2023-09-08T10:30:21;25.80;59.40
11229;DHT22;5671;47.936;8.716;2023-09-08T10:32:49;25.80;59.80
11229;DHT22;5671;47.936;8.716;2023-09-08T10:35:17;25.90;59.10
11229;DHT22;5671;47.936;8.716;2023-09-08T10:37:44;25.90;59.20
11229;DHT22;5671;47.936;8.716;2023-09-08T10:40:22;26.00;59.10
11229;DHT22;5671;47.936;8.716;2023-09-08T10:42:49;25.90;59.90
11229;DHT22;5671;47.936;8.716;2023-09-08T10:45:18;25.90;60.00
11229;DHT22;5671;47.936;8.716;2023-09-08T10:47:56;26.00;60.00
11229;DHT22;5671;47.936;8.716;2023-09-08T10:50:30;26.00;59.30
11229;DHT22;5671;47.936;8.716;2023-09-08T10:53:17;26.10;59.00
11229;DHT22;5671;47.936;8.716;2023-09-08T10:55:44;26.20;58.80
11229;DHT22;5671;47.936;8.716;2023-09-08T10:58:29;26.20;58.80
11229;DHT22;5671;47.936;8.716;2023-09-08T11:00:59;26.20;58.20
11229;DHT22;5671;47.936;8.716;2023-09-08T11:03:28;26.30;59.30
11229;DHT22;5671;47.936;8.716;2023-09-08T11:05:56;26.30;58.10
11229;DHT22;5671;47.936;8.716;2023-09-08T11:08:23;26.30;57.50
11229;DHT22;5671;47.936;8.716;2023-09-08T11:10:50;26.40;58.70
11229;DHT22;5671;47.936;8.716;2023-09-08T11:13:25;26.40;57.30
11229;DHT22;5671;47.936;8.716;2023-09-08T11:15:52;26.50;57.80
11229;DHT22;5671;47.936;8.716;2023-09-08T11:18:27;26.40;57.50
11229;DHT22;5671;47.936;8.716;2023-09-08T11:20:54;26.50;58.20
11229;DHT22;5671;47.936;8.716;2023-09-08T11:23:22;26.60;57.60
11229;DHT22;5671;47.936;8.716;2023-09-08T11:25:51;26.70;57.90
11229;DHT22;5671;47.936;8.716;2023-09-08T11:28:18;26.70;57.50
11229;DHT22;5671;47.936;8.716;2023-09-08T11:30:46;26.70;56.90
11229;DHT22;5671;47.936;8.716;2023-09-08T11:33:14;26.80;56.90
11229;DHT22;5671;47.936;8.716;2023-09-08T11:35:45;26.80;57.00
11229;DHT22;5671;47.936;8.716;2023-09-08T11:38:12;26.90;57.30
11229;DHT22;5671;47.936;8.716;2023-09-08T11:40:41;26.90;56.00
11229;DHT22;5671;47.936;8.716;2023-09-08T11:43:07;26.90;57.30
11229;DHT22;5671;47.936;8.716;2023-09-08T11:45:35;26.90;56.80
11229;DHT22;5671;47.936;8.716;2023-09-08T11:48:03;27.00;56.10
11229;DHT22;5671;47.936;8.716;2023-09-08T11:50:31;27.00;57.00
11229;DHT22;5671;47.936;8.716;2023-09-08T11:52:59;27.00;56.70
11229;DHT22;5671;47.936;8.716;2023-09-08T11:55:28;27.10;57.30
11229;DHT22;5671;47.936;8.716;2023-09-08T11:57:56;27.20;56.90
11229;DHT22;5671;47.936;8.716;2023-09-08T12:00:25;27.20;55.80
11229;DHT22;5671;47.936;8.716;2023-09-08T12:02:52;27.20;55.30
11229;DHT22;5671;47.936;8.716;2023-09-08T12:05:23;27.20;55.30
11229;DHT22;5671;47.936;8.716;2023-09-08T12:07:54;27.20;55.70
11229;DHT22;5671;47.936;8.716;2023-09-08T12:10:26;27.20;56.00
11229;DHT22;5671;47.936;8.716;2023-09-08T12:12:54;27.20;55.30
11229;DHT22;5671;47.936;8.716;2023-09-08T12:15:32;27.20;54.60
11229;DHT22;5671;47.936;8.716;2023-09-08T12:18:00;27.10;55.60
11229;DHT22;5671;47.936;8.716;2023-09-08T12:20:27;27.10;56.50
11229;DHT22;5671;47.936;8.716;2023-09-08T12:22:54;27.10;55.90
11229;DHT22;5671;47.936;8.716;2023-09-08T12:25:21;27.20;56.50
11229;DHT22;5671;47.936;8.716;2023-09-08T12:27:51;27.20;55.20
11229;DHT22;5671;47.936;8.716;2023-09-08T12:30:25;27.30;55.00
11229;DHT22;5671;47.936;8.716;2023-09-08T12:33:02;27.30;55.00
11229;DHT22;5671;47.936;8.716;2023-09-08T12:35:29;27.20;55.20
11229;DHT22;5671;47.936;8.716;2023-09-08T12:37:58;27.30;54.90
11229;DHT22;5671;47.936;8.716;2023-09-08T12:40:26;27.40;54.00
11229;DHT22;5671;47.936;8.716;2023-09-08T12:42:54;27.50;54.60
11229;DHT22;5671;47.936;8.716;2023-09-08T12:45:21;27.50;53.80
11229;DHT22;5671;47.936;8.716;2023-09-08T12:47:49;27.50;53.70
11229;DHT22;5671;47.936;8.716;2023-09-08T12:50:16;27.50;53.10
11229;DHT22;5671;47.936;8.716;2023-09-08T12:52:43;27.50;53.00
11229;DHT22;5671;47.936;8.716;2023-09-08T12:55:10;27.40;52.80
11229;DHT22;5671;47.936;8.716;2023-09-08T12:57:37;27.40;53.90
11229;DHT22;5671;47.936;8.716;2023-09-08T13:00:07;27.40;53.50
11229;DHT22;5671;47.936;8.716;2023-09-08T13:02:37;27.40;54.20
11229;DHT22;5671;47.936;8.716;2023-09-08T13:05:07;27.50;54.20
11229;DHT22;5671;47.936;8.716;2023-09-08T13:07:34;27.60;54.30
11229;DHT22;5671;47.936;8.716;2023-09-08T13:10:01;27.50;53.70
11229;DHT22;5671;47.936;8.716;2023-09-08T13:12:28;27.50;54.30
11229;DHT22;5671;47.936;8.716;2023-09-08T13:14:56;27.60;53.90
11229;DHT22;5671;47.936;8.716;2023-09-08T13:17:24;27.70;53.00
11229;DHT22;5671;47.936;8.716;2023-09-08T13:19:51;27.80;52.40
11229;DHT22;5671;47.936;8.716;2023-09-08T13:22:19;27.80;52.80
11229;DHT22;5671;47.936;8.716;2023-09-08T13:24:46;27.90;53.20
11229;DHT22;5671;47.936;8.716;2023-09-08T13:27:12;28.00;52.40
11229;DHT22;5671;47.936;8.716;2023-09-08T13:29:41;28.00;52.60
11229;DHT22;5671;47.936;8.716;2023-09-08T13:32:07;28.10;51.80
11229;DHT22;5671;47.936;8.716;2023-09-08T13:34:35;28.10;52.80
11229;DHT22;5671;47.936;8.716;2023-09-08T13:37:04;28.20;51.70
11229;DHT22;5671;47.936;8.716;2023-09-08T13:39:31;28.20;50.70
11229;DHT22;5671;47.936;8.716;2023-09-08T13:41:59;28.20;51.90
11229;DHT22;5671;47.936;8.716;2023-09-08T13:44:26;28.10;51.90
11229;DHT22;5671;47.936;8.716;2023-09-08T13:46:53;28.10;51.00
11229;DHT22;5671;47.936;8.716;2023-09-08T13:49:21;28.20;51.40
11229;DHT22;5671;47.936;8.716;2023-09-08T13:51:49;28.30;51.70
11229;DHT22;5671;47.936;8.716;2023-09-08T13:54:17;28.30;50.90
11229;DHT22;5671;47.936;8.716;2023-09-08T13:56:44;28.30;51.30
11229;DHT22;5671;47.936;8.716;2023-09-08T13:59:11;28.30;51.00
11229;DHT22;5671;47.936;8.716;2023-09-08T14:01:38;28.30;49.70
11229;DHT22;5671;47.936;8.716;2023-09-08T14:04:05;28.30;49.90
11229;DHT22;5671;47.936;8.716;2023-09-08T14:06:32;28.30;49.80
11229;DHT22;5671;47.936;8.716;2023-09-08T14:09:01;28.30;50.70
11229;DHT22;5671;47.936;8.716;2023-09-08T14:11:28;28.20;50.50
11229;DHT22;5671;47.936;8.716;2023-09-08T14:13:57;28.20;50.30
11229;DHT22;5671;47.936;8.716;2023-09-08T14:16:27;28.20;51.40
11229;DHT22;5671;47.936;8.716;2023-09-08T14:18:54;28.30;51.70
11229;DHT22;5671;47.936;8.716;2023-09-08T14:21:24;28.30;50.50
11229;DHT22;5671;47.936;8.716;2023-09-08T14:23:50;28.20;50.00
11229;DHT22;5671;47.936;8.716;2023-09-08T14:26:19;28.20;50.20
11229;DHT22;5671;47.936;8.716;2023-09-08T14:28:46;28.20;49.70
11229;DHT22;5671;47.936;8.716;2023-09-08T14:31:23;28.10;52.40
11229;DHT22;5671;47.936;8.716;2023-09-08T14:33:50;28.20;52.90
11229;DHT22;5671;47.936;8.716;2023-09-08T14:36:17;28.20;53.80
11229;DHT22;5671;47.936;8.716;2023-09-08T14:38:47;28.30;51.30
11229;DHT22;5671;47.936;8.716;2023-09-08T14:41:21;28.20;52.00
11229;DHT22;5671;47.936;8.716;2023-09-08T14:43:48;28.30;51.90
11229;DHT22;5671;47.936;8.716;2023-09-08T14:46:15;28.30;51.80
11229;DHT22;5671;47.936;8.716;2023-09-08T14:48:49;28.30;52.90
11229;DHT22;5671;47.936;8.716;2023-09-08T14:51:16;28.40;51.30
11229;DHT22;5671;47.936;8.716;2023-09-08T14:53:45;28.30;50.80
11229;DHT22;5671;47.936;8.716;2023-09-08T14:56:12;28.30;49.90
11229;DHT22;5671;47.936;8.716;2023-09-08T14:58:40;28.30;51.10
11229;DHT22;5671;47.936;8.716;2023-09-08T15:01:07;28.30;52.20
11229;DHT22;5671;47.936;8.716;2023-09-08T15:03:34;28.30;52.50
11229;DHT22;5671;47.936;8.716;2023-09-08T15:06:01;28.20;52.90
11229;DHT22;5671;47.936;8.716;2023-09-08T15:08:28;28.20;53.30
11229;DHT22;5671;47.936;8.716;2023-09-08T15:10:55;28.20;53.30
11229;DHT22;5671;47.936;8.716;2023-09-08T15:13:22;28.10;52.80
11229;DHT22;5671;47.936;8.716;2023-09-08T15:15:50;28.10;52.80
11229;DHT22;5671;47.936;8.716;2023-09-08T15:18:17;28.20;52.80
11229;DHT22;5671;47.936;8.716;2023-09-08T15:20:51;28.20;54.10
11229;DHT22;5671;47.936;8.716;2023-09-08T15:23:19;28.20;53.80
11229;DHT22;5671;47.936;8.716;2023-09-08T15:25:51;28.30;53.00
11229;DHT22;5671;47.936;8.716;2023-09-08T15:28:18;28.30;52.90
11229;DHT22;5671;47.936;8.716;2023-09-08T15:30:47;28.30;52.90
11229;DHT22;5671;47.936;8.716;2023-09-08T15:33:15;28.30;53.00
11229;DHT22;5671;47.936;8.716;2023-09-08T15:35:42;28.30;52.60
11229;DHT22;5671;47.936;8.716;2023-09-08T15:38:09;28.30;52.50
11229;DHT22;5671;47.936;8.716;2023-09-08T15:40:39;28.30;52.80
11229;DHT22;5671;47.936;8.716;2023-09-08T15:43:06;28.20;52.70
11229;DHT22;5671;47.936;8.716;2023-09-08T15:45:33;28.20;52.60
11229;DHT22;5671;47.936;8.716;2023-09-08T15:48:00;28.20;53.00
11229;DHT22;5671;47.936;8.716;2023-09-08T15:50:29;28.20;53.10
11229;DHT22;5671;47.936;8.716;2023-09-08T15:52:57;28.10;54.10